sensor_id;sensor_type;location;lat;lon;timestamp;pressure;altitude;pressure_sealevel;temperature;humidity
7966;BME280;4028;43.272;26.932;2023-04-15T00:00:13;98466.28;;;13.38;100.00
7966;BME280;4028;43.272;26.932;2023-04-15T00:02:40;98469.84;;;13.45;100.00
7966;BME280;4028;43.272;26.932;2023-04-15T00:05:06;98480.91;;;13.57;100.00
7966;BME280;4028;43.272;26.932;2023-04-15T00:07:32;98460.31;;;13.36;100.00
7966;BME280;4028;43.272;26.932;2023-04-15T00:09:57;98476.06;;;13.38;100.00
7966;BME280;4028;43.272;26.932;2023-04-15T00:12:24;98467.09;;;13.39;100.00
7966;BME280;4028;43.272;26.932;2023-04-15T00:14:50;98479.84;;;13.43;100.00
7966;BME280;4028;43.272;26.932;2023-04-15T00:17:16;98486.53;;;13.39;100.00
7966;BME280;4028;43.272;26.932;2023-04-15T00:19:42;98488.31;;;13.47;100.00
7966;BME280;4028;43.272;26.932;2023-04-15T00:22:10;98490.06;;;13.55;100.00
7966;BME280;4028;43.272;26.932;2023-04-15T00:24:35;98483.53;;;13.42;100.00
7966;BME280;4028;43.272;26.932;2023-04-15T00:27:01;98497.09;;;13.47;100.00
7966;BME280;4028;43.272;26.932;2023-04-15T00:29:26;98502.19;;;13.57;100.00
7966;BME280;4028;43.272;26.932;2023-04-15T00:31:52;98505.13;;;13.39;100.00
7966;BME280;4028;43.272;26.932;2023-04-15T00:34:17;98515.31;;;13.50;100.00
7966;BME280;4028;43.272;26.932;2023-04-15T00:36:43;98505.06;;;13.47;100.00
7966;BME280;4028;43.272;26.932;2023-04-15T00:39:09;98519.19;;;13.48;100.00
7966;BME280;4028;43.272;26.932;2023-04-15T00:41:34;98533.81;;;13.44;100.00
7966;BME280;4028;43.272;26.932;2023-04-15T00:44:06;98536.19;;;13.39;100.00
7966;BME280;4028;43.272;26.932;2023-04-15T00:46:34;98536.78;;;13.18;100.00
7966;BME280;4028;43.272;26.932;2023-04-15T00:49:02;98531.47;;;13.18;100.00
7966;BME280;4028;43.272;26.932;2023-04-15T00:51:28;98530.38;;;13.04;100.00
7966;BME280;4028;43.272;26.932;2023-04-15T00:53:55;98522.38;;;12.81;100.00
7966;BME280;4028;43.272;26.932;2023-04-15T00:56:20;98528.03;;;12.78;100.00
7966;BME280;4028;43.272;26.932;2023-04-15T00:58:50;98536.19;;;12.68;100.00
7966;BME280;4028;43.272;26.932;2023-04-15T01:01:18;98525.84;;;12.82;100.00
7966;BME280;4028;43.272;26.932;2023-04-15T01:03:46;98516.19;;;12.89;100.00
7966;BME280;4028;43.272;26.932;2023-04-15T01:06:12;98502.06;;;12.96;100.00
7966;BME280;4028;43.272;26.932;2023-04-15T01:08:38;98474.50;;;12.97;100.00
7966;BME280;4028;43.272;26.932;2023-04-15T01:11:04;98478.97;;;12.97;100.00
7966;BME280;4028;43.272;26.932;2023-04-15T01:13:30;98504.44;;;12.83;100.00
7966;BME280;4028;43.272;26.932;2023-04-15T01:15:58;98487.03;;;12.81;100.00
7966;BME280;4028;43.272;26.932;2023-04-15T01:18:23;98497.19;;;12.69;100.00
7966;BME280;4028;43.272;26.932;2023-04-15T01:20:49;98499.72;;;12.62;100.00
7966;BME280;4028;43.272;26.932;2023-04-15T01:23:14;98495.44;;;12.53;100.00
7966;BME280;4028;43.272;26.932;2023-04-15T01:25:42;98500.94;;;12.43;100.00
7966;BME280;4028;43.272;26.932;2023-04-15T01:28:08;98506.63;;;12.32;100.00
7966;BME280;4028;43.272;26.932;2023-04-15T01:30:35;98513.47;;;12.18;100.00
7966;BME280;4028;43.272;26.932;2023-04-15T01:33:01;98520.25;;;12.13;100.00
7966;BME280;4028;43.272;26.932;2023-04-15T01:35:27;98511.84;;;12.09;100.00
7966;BME280;4028;43.272;26.932;2023-04-15T01:37:53;98505.03;;;12.15;100.00
7966;BME280;4028;43.272;26.932;2023-04-15T01:40:20;98482.00;;;12.07;100.00
7966;BME280;4028;43.272;26.932;2023-04-15T01:42:45;98491.09;;;12.13;100.00
7966;BME280;4028;43.272;26.932;2023-04-15T01:45:11;98500.53;;;12.15;100.00
7966;BME280;4028;43.272;26.932;2023-04-15T01:47:39;98498.53;;;12.17;100.00
7966;BME280;4028;43.272;26.932;2023-04-15T01:50:05;98499.53;;;12.16;100.00
7966;BME280;4028;43.272;26.932;2023-04-15T01:52:31;98490.78;;;12.08;100.00
7966;BME280;4028;43.272;26.932;2023-04-15T01:54:56;98495.09;;;12.01;100.00
7966;BME280;4028;43.272;26.932;2023-04-15T01:57:22;98486.81;;;12.04;100.00
7966;BME280;4028;43.272;26.932;2023-04-15T01:59:47;98491.81;;;11.99;100.00
7966;BME280;4028;43.272;26.932;2023-04-15T02:02:13;98494.47;;;11.99;100.00
7966;BME280;4028;43.272;26.932;2023-04-15T02:04:39;98487.16;;;11.92;100.00
7966;BME280;4028;43.272;26.932;2023-04-15T02:07:04;98480.53;;;11.96;100.00
7966;BME280;4028;43.272;26.932;2023-04-15T02:09:31;98463.28;;;11.92;100.00
7966;BME280;4028;43.272;26.932;2023-04-15T02:11:56;98483.16;;;12.05;100.00
7966;BME280;4028;43.272;26.932;2023-04-15T02:14:22;98479.19;;;11.92;100.00
7966;BME280;4028;43.272;26.932;2023-04-15T02:16:47;98482.34;;;11.80;100.00
7966;BME280;4028;43.272;26.932;2023-04-15T02:19:13;98494.94;;;11.78;100.00
7966;BME280;4028;43.272;26.932;2023-04-15T02:21:39;98507.84;;;11.81;100.00
7966;BME280;4028;43.272;26.932;2023-04-15T02:24:05;98523.28;;;11.85;100.00
7966;BME280;4028;43.272;26.932;2023-04-15T02:26:30;98525.44;;;11.82;100.00
7966;BME280;4028;43.272;26.932;2023-04-15T02:28:57;98512.69;;;11.85;100.00
7966;BME280;4028;43.272;26.932;2023-04-15T02:31:23;98502.59;;;11.89;100.00
7966;BME280;4028;43.272;26.932;2023-04-15T02:33:49;98493.63;;;11.82;100.00
7966;BME280;4028;43.272;26.932;2023-04-15T02:36:14;98488.16;;;11.91;100.00
7966;BME280;4028;43.272;26.932;2023-04-15T02:38:40;98495.78;;;11.86;100.00
7966;BME280;4028;43.272;26.932;2023-04-15T02:41:10;98482.06;;;11.83;100.00
7966;BME280;4028;43.272;26.932;2023-04-15T02:43:36;98485.00;;;12.04;100.00
7966;BME280;4028;43.272;26.932;2023-04-15T02:46:02;98493.78;;;12.05;100.00
7966;BME280;4028;43.272;26.932;2023-04-15T02:48:28;98495.09;;;11.92;100.00
7966;BME280;4028;43.272;26.932;2023-04-15T02:51:10;98504.41;;;11.88;100.00
7966;BME280;4028;43.272;26.932;2023-04-15T02:53:35;98502.25;;;11.84;100.00
7966;BME280;4028;43.272;26.932;2023-04-15T02:56:01;98497.25;;;11.81;100.00
7966;BME280;4028;43.272;26.932;2023-04-15T02:58:26;98504.91;;;11.84;100.00
7966;BME280;4028;43.272;26.932;2023-04-15T03:00:51;98485.19;;;11.86;100.00
7966;BME280;4028;43.272;26.932;2023-04-15T03:03:17;98489.47;;;11.87;100.00
7966;BME280;4028;43.272;26.932;2023-04-15T03:05:43;98485.34;;;11.93;100.00
7966;BME280;4028;43.272;26.932;2023-04-15T03:08:08;98482.72;;;11.93;100.00
7966;BME280;4028;43.272;26.932;2023-04-15T03:10:34;98477.72;;;11.90;100.00
7966;BME280;4028;43.272;26.932;2023-04-15T03:12:59;98465.47;;;11.89;100.00
7966;BME280;4028;43.272;26.932;2023-04-15T03:15:25;98468.63;;;11.84;100.00
7966;BME280;4028;43.272;26.932;2023-04-15T03:17:51;98469.63;;;11.83;100.00
7966;BME280;4028;43.272;26.932;2023-04-15T03:20:16;98469.94;;;11.88;100.00
7966;BME280;4028;43.272;26.932;2023-04-15T03:22:42;98466.78;;;11.93;100.00
7966;BME280;4028;43.272;26.932;2023-04-15T03:25:08;98467.94;;;11.90;100.00
7966;BME280;4028;43.272;26.932;2023-04-15T03:27:33;98483.53;;;11.85;100.00
7966;BME280;4028;43.272;26.932;2023-04-15T03:29:59;98470.78;;;11.73;100.00
7966;BME280;4028;43.272;26.932;2023-04-15T03:32:24;98471.09;;;11.61;100.00
7966;BME280;4028;43.272;26.932;2023-04-15T03:34:51;98475.09;;;11.57;100.00
7966;BME280;4028;43.272;26.932;2023-04-15T03:37:16;98479.53;;;11.40;100.00
7966;BME280;4028;43.272;26.932;2023-04-15T03:39:42;98481.53;;;11.30;100.00
7966;BME280;4028;43.272;26.932;2023-04-15T03:42:07;98475.56;;;11.20;100.00
7966;BME280;4028;43.272;26.932;2023-04-15T03:44:33;98472.91;;;11.20;100.00
7966;BME280;4028;43.272;26.932;2023-04-15T03:46:58;98483.19;;;11.23;100.00
7966;BME280;4028;43.272;26.932;2023-04-15T03:49:24;98482.53;;;11.21;100.00
7966;BME280;4028;43.272;26.932;2023-04-15T03:51:49;98496.09;;;11.18;100.00
7966;BME280;4028;43.272;26.932;2023-04-15T03:54:15;98497.06;;;11.25;100.00
7966;BME280;4028;43.272;26.932;2023-04-15T03:56:40;98489.97;;;11.34;100.00
7966;BME280;4028;43.272;26.932;2023-04-15T03:59:06;98489.81;;;11.35;100.00
7966;BME280;4028;43.272;26.932;2023-04-15T04:01:31;98492.94;;;11.31;100.00
7966;BME280;4028;43.272;26.932;2023-04-15T04:03:57;98477.41;;;11.28;100.00
7966;BME280;4028;43.272;26.932;2023-04-15T04:06:23;98486.50;;;11.33;100.00
7966;BME280;4028;43.272;26.932;2023-04-15T04:08:48;98488.50;;;11.39;100.00
7966;BME280;4028;43.272;26.932;2023-04-15T04:11:14;98486.84;;;11.38;100.00
7966;BME280;4028;43.272;26.932;2023-04-15T04:13:39;98485.84;;;11.48;100.00
7966;BME280;4028;43.272;26.932;2023-04-15T04:16:05;98481.22;;;11.50;100.00
7966;BME280;4028;43.272;26.932;2023-04-15T04:18:31;98478.25;;;11.53;100.00
7966;BME280;4028;43.272;26.932;2023-04-15T04:20:57;98444.47;;;11.38;100.00
7966;BME280;4028;43.272;26.932;2023-04-15T04:23:22;98469.28;;;11.45;100.00
7966;BME280;4028;43.272;26.932;2023-04-15T04:25:48;98469.94;;;11.39;100.00
7966;BME280;4028;43.272;26.932;2023-04-15T04:28:13;98465.97;;;11.43;100.00
7966;BME280;4028;43.272;26.932;2023-04-15T04:30:39;98473.59;;;11.38;100.00
7966;BME280;4028;43.272;26.932;2023-04-15T04:33:05;98482.19;;;11.40;100.00
7966;BME280;4028;43.272;26.932;2023-04-15T04:35:31;98493.97;;;11.38;100.00
7966;BME280;4028;43.272;26.932;2023-04-15T04:37:59;98500.25;;;11.37;100.00
7966;BME280;4028;43.272;26.932;2023-04-15T04:40:25;98511.69;;;11.37;100.00
7966;BME280;4028;43.272;26.932;2023-04-15T04:42:52;98507.03;;;11.39;100.00
7966;BME280;4028;43.272;26.932;2023-04-15T04:45:18;98511.31;;;11.40;100.00
7966;BME280;4028;43.272;26.932;2023-04-15T04:47:43;98502.72;;;11.38;100.00
7966;BME280;4028;43.272;26.932;2023-04-15T04:50:09;98496.09;;;11.34;100.00
7966;BME280;4028;43.272;26.932;2023-04-15T04:52:35;98480.72;;;11.38;100.00
7966;BME280;4028;43.272;26.932;2023-04-15T04:55:00;98474.56;;;11.45;100.00
7966;BME280;4028;43.272;26.932;2023-04-15T04:57:26;98476.91;;;11.49;100.00
7966;BME280;4028;43.272;26.932;2023-04-15T04:59:51;98494.97;;;11.53;100.00
7966;BME280;4028;43.272;26.932;2023-04-15T05:02:16;98505.38;;;11.55;100.00
7966;BME280;4028;43.272;26.932;2023-04-15T05:04:42;98495.94;;;11.60;100.00
7966;BME280;4028;43.272;26.932;2023-04-15T05:07:07;98503.06;;;11.60;100.00
7966;BME280;4028;43.272;26.932;2023-04-15T05:09:33;98505.88;;;11.66;100.00
7966;BME280;4028;43.272;26.932;2023-04-15T05:12:01;98512.53;;;11.62;100.00
7966;BME280;4028;43.272;26.932;2023-04-15T05:14:26;98500.91;;;11.55;100.00
7966;BME280;4028;43.272;26.932;2023-04-15T05:16:52;98524.25;;;11.76;100.00
7966;BME280;4028;43.272;26.932;2023-04-15T05:19:17;98534.72;;;11.78;100.00
7966;BME280;4028;43.272;26.932;2023-04-15T05:21:43;98546.16;;;11.86;100.00
7966;BME280;4028;43.272;26.932;2023-04-15T05:24:08;98560.09;;;11.88;100.00
7966;BME280;4028;43.272;26.932;2023-04-15T05:26:34;98558.41;;;11.87;100.00
7966;BME280;4028;43.272;26.932;2023-04-15T05:28:59;98541.84;;;11.85;100.00
7966;BME280;4028;43.272;26.932;2023-04-15T05:31:25;98533.06;;;11.85;100.00
7966;BME280;4028;43.272;26.932;2023-04-15T05:33:50;98513.16;;;11.81;100.00
7966;BME280;4028;43.272;26.932;2023-04-15T05:36:16;98506.88;;;11.90;100.00
7966;BME280;4028;43.272;26.932;2023-04-15T05:38:41;98511.38;;;11.89;100.00
7966;BME280;4028;43.272;26.932;2023-04-15T05:41:07;98500.09;;;11.95;100.00
7966;BME280;4028;43.272;26.932;2023-04-15T05:43:33;98476.41;;;11.94;100.00
7966;BME280;4028;43.272;26.932;2023-04-15T05:45:58;98479.88;;;11.94;100.00
7966;BME280;4028;43.272;26.932;2023-04-15T05:48:24;98483.84;;;11.90;100.00
7966;BME280;4028;43.272;26.932;2023-04-15T05:50:49;98507.34;;;12.02;100.00
7966;BME280;4028;43.272;26.932;2023-04-15T05:53:15;98531.72;;;12.05;100.00
7966;BME280;4028;43.272;26.932;2023-04-15T05:55:40;98546.31;;;12.09;100.00
7966;BME280;4028;43.272;26.932;2023-04-15T05:58:06;98544.78;;;12.23;100.00
7966;BME280;4028;43.272;26.932;2023-04-15T06:00:31;98559.22;;;12.20;100.00
7966;BME280;4028;43.272;26.932;2023-04-15T06:02:57;98553.41;;;12.25;100.00
7966;BME280;4028;43.272;26.932;2023-04-15T06:05:23;98554.41;;;12.24;100.00
7966;BME280;4028;43.272;26.932;2023-04-15T06:07:49;98551.06;;;12.22;100.00
7966;BME280;4028;43.272;26.932;2023-04-15T06:10:14;98561.00;;;12.28;100.00
7966;BME280;4028;43.272;26.932;2023-04-15T06:12:40;98556.88;;;12.34;100.00
7966;BME280;4028;43.272;26.932;2023-04-15T06:15:06;98555.66;;;12.53;100.00
7966;BME280;4028;43.272;26.932;2023-04-15T06:17:34;98524.19;;;12.33;100.00
7966;BME280;4028;43.272;26.932;2023-04-15T06:19:59;98567.56;;;12.65;100.00
7966;BME280;4028;43.272;26.932;2023-04-15T06:22:25;98559.41;;;12.74;100.00
7966;BME280;4028;43.272;26.932;2023-04-15T06:24:50;98579.09;;;12.88;100.00
7966;BME280;4028;43.272;26.932;2023-04-15T06:27:16;98583.06;;;12.92;100.00
7966;BME280;4028;43.272;26.932;2023-04-15T06:29:42;98593.47;;;13.02;100.00
7966;BME280;4028;43.272;26.932;2023-04-15T06:32:07;98604.09;;;13.02;100.00
7966;BME280;4028;43.272;26.932;2023-04-15T06:34:33;98596.63;;;13.06;100.00
7966;BME280;4028;43.272;26.932;2023-04-15T06:36:58;98599.28;;;13.06;100.00
7966;BME280;4028;43.272;26.932;2023-04-15T06:39:25;98592.66;;;13.01;100.00
7966;BME280;4028;43.272;26.932;2023-04-15T06:41:51;98592.25;;;13.13;100.00
7966;BME280;4028;43.272;26.932;2023-04-15T06:44:17;98592.78;;;13.08;100.00
7966;BME280;4028;43.272;26.932;2023-04-15T06:46:43;98592.28;;;13.05;100.00
7966;BME280;4028;43.272;26.932;2023-04-15T06:49:09;98593.13;;;13.05;100.00
7966;BME280;4028;43.272;26.932;2023-04-15T06:51:35;98589.28;;;13.08;100.00
7966;BME280;4028;43.272;26.932;2023-04-15T06:54:01;98588.09;;;13.10;100.00
7966;BME280;4028;43.272;26.932;2023-04-15T06:56:30;98590.72;;;13.18;100.00
7966;BME280;4028;43.272;26.932;2023-04-15T06:58:56;98595.47;;;13.39;100.00
7966;BME280;4028;43.272;26.932;2023-04-15T07:01:21;98606.59;;;13.66;100.00
7966;BME280;4028;43.272;26.932;2023-04-15T07:03:47;98611.75;;;13.90;100.00
7966;BME280;4028;43.272;26.932;2023-04-15T07:06:12;98600.56;;;14.18;100.00
7966;BME280;4028;43.272;26.932;2023-04-15T07:08:38;98605.78;;;14.26;100.00
7966;BME280;4028;43.272;26.932;2023-04-15T07:11:04;98603.94;;;14.26;100.00
7966;BME280;4028;43.272;26.932;2023-04-15T07:13:31;98607.38;;;13.97;100.00
7966;BME280;4028;43.272;26.932;2023-04-15T07:15:57;98552.38;;;13.52;100.00
7966;BME280;4028;43.272;26.932;2023-04-15T07:18:22;98608.25;;;13.90;100.00
7966;BME280;4028;43.272;26.932;2023-04-15T07:20:48;98607.78;;;13.86;100.00
7966;BME280;4028;43.272;26.932;2023-04-15T07:23:13;98610.72;;;13.91;100.00
7966;BME280;4028;43.272;26.932;2023-04-15T07:25:39;98602.31;;;13.88;100.00
7966;BME280;4028;43.272;26.932;2023-04-15T07:28:04;98624.81;;;14.00;100.00
7966;BME280;4028;43.272;26.932;2023-04-15T07:30:30;98626.94;;;14.04;100.00
7966;BME280;4028;43.272;26.932;2023-04-15T07:32:57;98623.72;;;14.09;100.00
7966;BME280;4028;43.272;26.932;2023-04-15T07:35:22;98630.59;;;14.03;100.00
7966;BME280;4028;43.272;26.932;2023-04-15T07:37:49;98637.31;;;14.14;100.00
7966;BME280;4028;43.272;26.932;2023-04-15T07:40:15;98637.63;;;14.19;100.00
7966;BME280;4028;43.272;26.932;2023-04-15T07:42:41;98636.13;;;14.17;100.00
7966;BME280;4028;43.272;26.932;2023-04-15T07:45:07;98625.88;;;14.14;100.00
7966;BME280;4028;43.272;26.932;2023-04-15T07:47:33;98629.09;;;14.24;100.00
7966;BME280;4028;43.272;26.932;2023-04-15T07:49:58;98644.03;;;14.48;100.00
7966;BME280;4028;43.272;26.932;2023-04-15T07:52:24;98642.13;;;14.56;100.00
7966;BME280;4028;43.272;26.932;2023-04-15T07:54:49;98654.34;;;14.66;100.00
7966;BME280;4028;43.272;26.932;2023-04-15T07:57:15;98659.50;;;14.67;100.00
7966;BME280;4028;43.272;26.932;2023-04-15T07:59:41;98656.50;;;14.85;100.00
7966;BME280;4028;43.272;26.932;2023-04-15T08:02:07;98655.84;;;14.83;100.00
7966;BME280;4028;43.272;26.932;2023-04-15T08:04:32;98655.94;;;14.75;100.00
7966;BME280;4028;43.272;26.932;2023-04-15T08:06:58;98656.75;;;14.75;100.00
7966;BME280;4028;43.272;26.932;2023-04-15T08:09:24;98656.84;;;14.82;100.00
7966;BME280;4028;43.272;26.932;2023-04-15T08:11:49;98659.22;;;14.77;100.00
7966;BME280;4028;43.272;26.932;2023-04-15T08:14:15;98644.28;;;14.76;100.00
7966;BME280;4028;43.272;26.932;2023-04-15T08:16:41;98657.88;;;14.81;100.00
7966;BME280;4028;43.272;26.932;2023-04-15T08:19:06;98655.47;;;14.86;100.00
7966;BME280;4028;43.272;26.932;2023-04-15T08:21:32;98653.84;;;14.85;100.00
7966;BME280;4028;43.272;26.932;2023-04-15T08:23:58;98658.41;;;14.91;100.00
7966;BME280;4028;43.272;26.932;2023-04-15T08:26:24;98665.94;;;15.02;100.00
7966;BME280;4028;43.272;26.932;2023-04-15T08:28:50;98666.50;;;15.13;100.00
7966;BME280;4028;43.272;26.932;2023-04-15T08:31:17;98667.78;;;15.17;100.00
7966;BME280;4028;43.272;26.932;2023-04-15T08:33:43;98669.72;;;15.23;100.00
7966;BME280;4028;43.272;26.932;2023-04-15T08:36:08;98674.31;;;15.14;100.00
7966;BME280;4028;43.272;26.932;2023-04-15T08:38:35;98686.91;;;15.20;100.00
7966;BME280;4028;43.272;26.932;2023-04-15T08:41:08;98686.34;;;15.25;100.00
7966;BME280;4028;43.272;26.932;2023-04-15T08:43:52;98667.91;;;15.74;100.00
7966;BME280;4028;43.272;26.932;2023-04-15T08:46:19;98679.44;;;16.39;100.00
7966;BME280;4028;43.272;26.932;2023-04-15T08:48:46;98670.19;;;17.26;100.00
7966;BME280;4028;43.272;26.932;2023-04-15T08:51:13;98667.53;;;17.80;100.00
7966;BME280;4028;43.272;26.932;2023-04-15T08:53:42;98657.13;;;18.65;100.00
7966;BME280;4028;43.272;26.932;2023-04-15T08:56:08;98668.53;;;19.38;100.00
7966;BME280;4028;43.272;26.932;2023-04-15T08:58:36;98674.56;;;19.27;100.00
7966;BME280;4028;43.272;26.932;2023-04-15T09:01:02;98670.72;;;18.96;100.00
7966;BME280;4028;43.272;26.932;2023-04-15T09:03:27;98670.09;;;18.88;100.00
7966;BME280;4028;43.272;26.932;2023-04-15T09:05:53;98671.66;;;19.29;100.00
7966;BME280;4028;43.272;26.932;2023-04-15T09:08:19;98664.06;;;19.70;100.00
7966;BME280;4028;43.272;26.932;2023-04-15T09:10:45;98672.78;;;20.04;100.00
7966;BME280;4028;43.272;26.932;2023-04-15T09:13:10;98668.03;;;19.68;100.00
7966;BME280;4028;43.272;26.932;2023-04-15T09:15:39;98669.28;;;18.94;100.00
7966;BME280;4028;43.272;26.932;2023-04-15T09:18:05;98668.47;;;18.80;100.00
7966;BME280;4028;43.272;26.932;2023-04-15T09:20:38;98657.31;;;18.50;100.00
7966;BME280;4028;43.272;26.932;2023-04-15T09:23:11;98654.84;;;18.55;100.00
7966;BME280;4028;43.272;26.932;2023-04-15T09:25:39;98656.66;;;19.08;100.00
7966;BME280;4028;43.272;26.932;2023-04-15T09:28:06;98659.94;;;19.74;100.00
7966;BME280;4028;43.272;26.932;2023-04-15T09:30:32;98653.91;;;20.11;100.00
7966;BME280;4028;43.272;26.932;2023-04-15T09:32:59;98659.75;;;20.64;95.40
7966;BME280;4028;43.272;26.932;2023-04-15T09:35:25;98660.47;;;20.78;91.73
7966;BME280;4028;43.272;26.932;2023-04-15T09:37:53;98658.28;;;20.68;89.23
7966;BME280;4028;43.272;26.932;2023-04-15T09:40:32;98655.41;;;20.38;87.15
7966;BME280;4028;43.272;26.932;2023-04-15T09:42:58;98659.69;;;20.14;95.97
7966;BME280;4028;43.272;26.932;2023-04-15T09:45:24;98638.16;;;19.89;100.00
7966;BME280;4028;43.272;26.932;2023-04-15T09:47:50;98656.94;;;20.28;92.74
7966;BME280;4028;43.272;26.932;2023-04-15T09:50:18;98659.72;;;20.39;90.55
7966;BME280;4028;43.272;26.932;2023-04-15T09:52:43;98654.28;;;20.53;87.19
7966;BME280;4028;43.272;26.932;2023-04-15T09:55:10;98650.97;;;20.75;83.75
7966;BME280;4028;43.272;26.932;2023-04-15T09:57:37;98655.25;;;21.01;84.75
7966;BME280;4028;43.272;26.932;2023-04-15T10:00:03;98656.44;;;21.24;75.67
7966;BME280;4028;43.272;26.932;2023-04-15T10:02:29;98648.78;;;21.09;78.49
7966;BME280;4028;43.272;26.932;2023-04-15T10:04:56;98650.03;;;20.88;82.22
7966;BME280;4028;43.272;26.932;2023-04-15T10:07:22;98648.22;;;21.00;78.12
7966;BME280;4028;43.272;26.932;2023-04-15T10:09:48;98639.47;;;20.68;81.45
7966;BME280;4028;43.272;26.932;2023-04-15T10:12:15;98647.88;;;20.22;85.71
7966;BME280;4028;43.272;26.932;2023-04-15T10:14:41;98644.69;;;20.63;93.22
7966;BME280;4028;43.272;26.932;2023-04-15T10:17:10;98642.31;;;20.92;92.08
7966;BME280;4028;43.272;26.932;2023-04-15T10:19:39;98646.97;;;20.60;81.06
7966;BME280;4028;43.272;26.932;2023-04-15T10:22:05;98637.34;;;20.45;81.14
7966;BME280;4028;43.272;26.932;2023-04-15T10:24:32;98638.34;;;20.51;82.08
7966;BME280;4028;43.272;26.932;2023-04-15T10:26:58;98635.91;;;20.18;81.71
7966;BME280;4028;43.272;26.932;2023-04-15T10:29:24;98637.28;;;20.02;93.56
7966;BME280;4028;43.272;26.932;2023-04-15T10:31:54;98634.41;;;20.54;90.83
7966;BME280;4028;43.272;26.932;2023-04-15T10:34:24;98612.34;;;20.70;81.49
7966;BME280;4028;43.272;26.932;2023-04-15T10:36:50;98633.59;;;20.78;76.53
7966;BME280;4028;43.272;26.932;2023-04-15T10:42:18;98620.72;;;21.17;73.96
7966;BME280;4028;43.272;26.932;2023-04-15T10:44:48;98629.72;;;21.77;70.30
7966;BME280;4028;43.272;26.932;2023-04-15T10:47:17;98627.56;;;21.98;66.39
7966;BME280;4028;43.272;26.932;2023-04-15T10:50:04;98627.16;;;22.13;67.63
7966;BME280;4028;43.272;26.932;2023-04-15T10:52:29;98627.59;;;21.79;64.82
7966;BME280;4028;43.272;26.932;2023-04-15T10:55:19;98633.25;;;21.60;66.28
7966;BME280;4028;43.272;26.932;2023-04-15T10:57:45;98636.91;;;21.35;68.23
7966;BME280;4028;43.272;26.932;2023-04-15T11:00:11;98632.22;;;21.24;66.91
7966;BME280;4028;43.272;26.932;2023-04-15T11:02:43;98631.94;;;20.95;67.74
7966;BME280;4028;43.272;26.932;2023-04-15T11:05:10;98632.09;;;21.19;68.63
7966;BME280;4028;43.272;26.932;2023-04-15T11:07:50;98637.72;;;20.99;62.79
7966;BME280;4028;43.272;26.932;2023-04-15T11:12:42;98636.25;;;20.28;66.84
7966;BME280;4028;43.272;26.932;2023-04-15T11:17:52;98636.81;;;20.05;65.27
7966;BME280;4028;43.272;26.932;2023-04-15T11:20:18;98640.78;;;20.03;68.43
7966;BME280;4028;43.272;26.932;2023-04-15T11:22:51;98637.56;;;19.87;71.95
7966;BME280;4028;43.272;26.932;2023-04-15T11:25:24;98644.16;;;19.91;70.30
7966;BME280;4028;43.272;26.932;2023-04-15T11:27:52;98609.41;;;19.58;69.99
7966;BME280;4028;43.272;26.932;2023-04-15T11:32:51;98633.72;;;19.77;68.96
7966;BME280;4028;43.272;26.932;2023-04-15T11:35:17;98637.22;;;19.77;75.59
7966;BME280;4028;43.272;26.932;2023-04-15T11:37:47;98635.78;;;19.74;81.24
7966;BME280;4028;43.272;26.932;2023-04-15T11:40:19;98640.63;;;19.91;92.58
7966;BME280;4028;43.272;26.932;2023-04-15T11:42:46;98645.56;;;19.62;79.16
7966;BME280;4028;43.272;26.932;2023-04-15T11:45:27;98644.97;;;19.47;89.91
7966;BME280;4028;43.272;26.932;2023-04-15T11:47:53;98646.97;;;19.58;73.54
7966;BME280;4028;43.272;26.932;2023-04-15T11:50:20;98642.41;;;19.65;77.39
7966;BME280;4028;43.272;26.932;2023-04-15T11:52:53;98646.31;;;19.69;73.66
7966;BME280;4028;43.272;26.932;2023-04-15T11:55:19;98641.44;;;19.53;68.53
7966;BME280;4028;43.272;26.932;2023-04-15T11:57:45;98641.69;;;19.45;68.12
7966;BME280;4028;43.272;26.932;2023-04-15T12:00:11;98639.19;;;19.50;69.03
7966;BME280;4028;43.272;26.932;2023-04-15T12:02:38;98641.22;;;19.61;68.33
7966;BME280;4028;43.272;26.932;2023-04-15T12:05:04;98635.78;;;19.74;74.46
7966;BME280;4028;43.272;26.932;2023-04-15T12:07:30;98630.16;;;19.83;75.43
7966;BME280;4028;43.272;26.932;2023-04-15T12:09:56;98630.22;;;20.01;74.87
7966;BME280;4028;43.272;26.932;2023-04-15T12:12:21;98635.94;;;20.11;67.39
7966;BME280;4028;43.272;26.932;2023-04-15T12:14:51;98625.53;;;20.21;62.29
7966;BME280;4028;43.272;26.932;2023-04-15T12:17:17;98638.00;;;20.41;65.69
7966;BME280;4028;43.272;26.932;2023-04-15T12:19:42;98630.47;;;20.56;64.90
7966;BME280;4028;43.272;26.932;2023-04-15T12:22:11;98634.59;;;20.59;66.04
7966;BME280;4028;43.272;26.932;2023-04-15T12:24:38;98633.16;;;20.56;66.22
7966;BME280;4028;43.272;26.932;2023-04-15T12:27:16;98632.03;;;20.39;68.73
7966;BME280;4028;43.272;26.932;2023-04-15T12:29:42;98630.56;;;20.43;64.90
7966;BME280;4028;43.272;26.932;2023-04-15T12:32:13;98637.41;;;20.39;64.26
7966;BME280;4028;43.272;26.932;2023-04-15T12:37:07;98627.47;;;20.39;69.03
7966;BME280;4028;43.272;26.932;2023-04-15T12:39:37;98629.13;;;20.40;64.83
7966;BME280;4028;43.272;26.932;2023-04-15T12:42:04;98621.13;;;20.34;63.03
7966;BME280;4028;43.272;26.932;2023-04-15T12:44:32;98632.63;;;20.41;65.66
7966;BME280;4028;43.272;26.932;2023-04-15T12:46:58;98623.31;;;20.43;60.07
7966;BME280;4028;43.272;26.932;2023-04-15T12:49:24;98627.56;;;20.58;57.79
7966;BME280;4028;43.272;26.932;2023-04-15T12:51:55;98623.66;;;20.79;57.34
7966;BME280;4028;43.272;26.932;2023-04-15T12:54:21;98627.63;;;20.94;58.76
7966;BME280;4028;43.272;26.932;2023-04-15T12:56:48;98617.06;;;20.93;57.27
7966;BME280;4028;43.272;26.932;2023-04-15T12:59:14;98623.44;;;21.17;57.45
7966;BME280;4028;43.272;26.932;2023-04-15T13:01:42;98620.75;;;21.35;58.29
7966;BME280;4028;43.272;26.932;2023-04-15T13:04:07;98622.34;;;21.54;55.80
7966;BME280;4028;43.272;26.932;2023-04-15T13:06:33;98599.69;;;21.62;54.29
7966;BME280;4028;43.272;26.932;2023-04-15T13:08:59;98616.00;;;21.67;51.53
7966;BME280;4028;43.272;26.932;2023-04-15T13:11:26;98617.03;;;21.66;53.42